createdAt,value
2017-03-15T00:00:05.971Z,12.28
2017-03-15T00:00:46.454Z,12.37
2017-03-15T00:01:26.992Z,12.24
2017-03-15T00:02:07.449Z,12.28
2017-03-15T00:02:47.973Z,12.12
2017-03-15T00:03:28.419Z,12.04
2017-03-15T00:04:08.942Z,12.14
2017-03-15T00:04:49.420Z,12.07
2017-03-15T00:05:29.931Z,12.13
2017-03-15T00:06:10.424Z,12.04
2017-03-15T00:06:50.909Z,11.91
2017-03-15T00:07:31.381Z,12.07
2017-03-15T00:08:11.877Z,12.1
2017-03-15T00:08:52.371Z,12.09
2017-03-15T00:09:32.919Z,11.96
2017-03-15T00:10:13.355Z,12.04
2017-03-15T00:10:53.924Z,12.04
2017-03-15T00:11:34.387Z,12.01
2017-03-15T00:12:14.875Z,12.05
2017-03-15T00:12:55.389Z,12.09
2017-03-15T00:13:35.881Z,12.02
2017-03-15T00:14:16.380Z,12.09
2017-03-15T00:14:56.890Z,12.02
2017-03-15T00:15:37.407Z,12.1
2017-03-15T00:16:17.891Z,12.16
2017-03-15T00:16:58.422Z,12.19
2017-03-15T00:17:38.923Z,12.31
2017-03-15T00:18:19.421Z,12.16
2017-03-15T00:18:59.930Z,12.27
2017-03-15T00:19:40.465Z,12.29
2017-03-15T00:20:20.910Z,12.28
2017-03-15T00:21:01.389Z,12.16
2017-03-15T00:21:41.886Z,12.1
2017-03-15T00:22:22.363Z,12.14
2017-03-15T00:23:02.897Z,12.09
2017-03-15T00:23:43.376Z,12.12
2017-03-15T00:24:23.879Z,12.07
2017-03-15T00:25:04.359Z,11.98
2017-03-15T00:25:44.863Z,12.09
2017-03-15T00:26:25.358Z,11.99
2017-03-15T00:27:05.856Z,11.99
2017-03-15T00:27:46.353Z,12.07
2017-03-15T00:28:26.850Z,12.02
2017-03-15T00:29:07.325Z,11.99
2017-03-15T00:29:47.784Z,11.95
2017-03-15T00:30:28.275Z,11.99
2017-03-15T00:31:08.797Z,12.01
2017-03-15T00:31:49.278Z,12.14
2017-03-15T00:32:29.804Z,12.14
2017-03-15T00:33:10.257Z,12.17
2017-03-15T00:33:50.760Z,12.12
2017-03-15T00:34:31.245Z,12.09
2017-03-15T00:35:11.760Z,12.07
2017-03-15T00:35:52.242Z,12.12
2017-03-15T00:36:32.733Z,12.07
2017-03-15T00:37:13.212Z,12.04
2017-03-15T00:37:53.717Z,11.99
2017-03-15T00:38:34.216Z,12.02
2017-03-15T00:39:14.756Z,12.12
2017-03-15T00:39:55.232Z,12.12
2017-03-15T00:40:35.728Z,12.12
2017-03-15T00:41:16.245Z,12.14
2017-03-15T00:41:56.715Z,12.13
2017-03-15T00:42:37.223Z,12.14
2017-03-15T00:43:17.717Z,12.17
2017-03-15T00:43:58.178Z,12.12
2017-03-15T00:44:38.674Z,12.14
2017-03-15T00:45:19.162Z,12.12
2017-03-15T00:45:59.664Z,12.14
2017-03-15T00:46:40.122Z,12.16
2017-03-15T00:47:20.607Z,12.19
2017-03-15T00:48:01.124Z,12.09
2017-03-15T00:48:41.610Z,12.07
2017-03-15T00:49:22.087Z,12.01
2017-03-15T00:50:02.555Z,12.07
2017-03-15T00:50:43.082Z,12.01
2017-03-15T00:51:23.586Z,11.96
2017-03-15T00:52:04.048Z,11.99
2017-03-15T00:52:44.541Z,12.09
2017-03-15T00:53:25.060Z,12.05
2017-03-15T00:54:05.567Z,12.12
2017-03-15T00:54:46.005Z,12.02
2017-03-15T00:55:26.545Z,12.01
2017-03-15T00:56:07.038Z,11.94
2017-03-15T00:56:47.508Z,11.85
2017-03-15T00:57:28.085Z,11.94
2017-03-15T00:58:08.610Z,11.98
2017-03-15T00:58:49.114Z,11.85
2017-03-15T00:59:29.602Z,11.85
2017-03-15T01:00:10.096Z,11.86
2017-03-15T01:00:50.568Z,11.85
2017-03-15T01:01:31.079Z,11.91
2017-03-15T01:02:11.623Z,11.86
2017-03-15T01:02:52.111Z,11.96
2017-03-15T01:03:32.629Z,11.99
2017-03-15T01:04:13.119Z,11.86
2017-03-15T01:04:53.591Z,11.79
2017-03-15T01:05:34.117Z,11.9
2017-03-15T01:06:14.592Z,11.78
2017-03-15T01:06:55.113Z,11.76
2017-03-15T01:07:35.580Z,11.75
2017-03-15T01:08:16.074Z,11.94
2017-03-15T01:08:56.596Z,11.86
2017-03-15T01:09:37.074Z,11.88
2017-03-15T01:10:17.581Z,11.88
2017-03-15T01:10:58.050Z,11.72
2017-03-15T01:11:38.600Z,11.7
2017-03-15T01:12:19.044Z,11.79
2017-03-15T01:12:59.554Z,11.75
2017-03-15T01:13:40.045Z,11.8
2017-03-15T01:14:20.506Z,11.73
2017-03-15T01:15:01.015Z,11.82
2017-03-15T01:15:41.495Z,11.82
2017-03-15T01:16:21.989Z,11.64
2017-03-15T01:17:02.481Z,11.8
2017-03-15T01:17:42.986Z,11.72
2017-03-15T01:18:23.487Z,11.83
2017-03-15T01:19:03.973Z,11.82
2017-03-15T01:19:44.476Z,11.78
2017-03-15T01:20:24.958Z,11.73
2017-03-15T01:21:05.455Z,11.82
2017-03-15T01:21:45.921Z,11.88
2017-03-15T01:22:29.671Z,11.86
2017-03-15T01:23:11.750Z,11.86
2017-03-15T01:23:54.719Z,11.8
2017-03-15T01:24:36.885Z,11.78
2017-03-15T01:26:52.905Z,11.83
2017-03-15T01:27:33.395Z,11.83
2017-03-15T01:28:13.900Z,11.78
2017-03-15T01:28:54.394Z,11.78
2017-03-15T01:29:34.897Z,11.83
2017-03-15T01:30:15.400Z,11.82
2017-03-15T01:30:55.899Z,11.75
2017-03-15T01:31:36.397Z,11.78
2017-03-15T01:32:16.879Z,11.73
2017-03-15T01:32:57.391Z,11.83
2017-03-15T01:33:37.863Z,11.78
2017-03-15T01:34:18.295Z,11.85
2017-03-15T01:34:58.811Z,11.76
2017-03-15T01:35:39.309Z,11.86
2017-03-15T01:36:19.802Z,11.8
2017-03-15T01:37:00.292Z,11.86
2017-03-15T01:37:40.801Z,11.79
2017-03-15T01:38:21.303Z,11.76
2017-03-15T01:39:01.733Z,11.9
2017-03-15T01:39:42.266Z,11.88
2017-03-15T01:40:22.741Z,11.88
2017-03-15T01:41:03.237Z,11.95
2017-03-15T01:41:43.738Z,11.9
2017-03-15T01:42:24.221Z,11.86
2017-03-15T01:43:04.671Z,11.86
2017-03-15T01:43:45.190Z,11.9
2017-03-15T01:44:25.668Z,11.98
2017-03-15T01:45:06.138Z,11.99
2017-03-15T01:45:46.669Z,11.96
2017-03-15T01:46:27.124Z,12.01
2017-03-15T01:47:07.626Z,11.95
2017-03-15T01:47:48.132Z,11.98
2017-03-15T01:48:28.644Z,11.99
2017-03-15T01:49:09.117Z,11.95
2017-03-15T01:49:49.606Z,11.94
2017-03-15T01:50:30.081Z,11.96
2017-03-15T01:51:10.604Z,11.98
2017-03-15T01:51:51.081Z,11.98
2017-03-15T01:52:31.585Z,11.99
2017-03-15T01:53:12.079Z,11.96
2017-03-15T01:53:52.524Z,11.94
2017-03-15T01:54:33.004Z,11.88
2017-03-15T01:55:13.518Z,11.79
2017-03-15T01:55:53.983Z,11.86
2017-03-15T01:56:34.521Z,11.79
2017-03-15T01:57:14.996Z,11.72
2017-03-15T01:57:55.483Z,11.78
2017-03-15T01:58:35.925Z,11.73
2017-03-15T01:59:16.457Z,11.69
2017-03-15T01:59:56.929Z,11.72
2017-03-15T02:00:37.417Z,11.67
2017-03-15T02:01:17.910Z,11.73
2017-03-15T02:01:58.482Z,11.79
2017-03-15T02:02:38.953Z,11.8
2017-03-15T02:03:19.457Z,11.76
2017-03-15T02:03:59.942Z,11.78
2017-03-15T02:04:40.423Z,11.85
2017-03-15T02:05:20.911Z,11.9
2017-03-15T02:06:01.423Z,11.83
2017-03-15T02:06:41.926Z,11.75
2017-03-15T02:07:22.420Z,11.8
2017-03-15T02:08:02.925Z,11.8
2017-03-15T02:08:43.388Z,11.75
2017-03-15T02:09:23.908Z,11.69
2017-03-15T02:10:04.424Z,11.8
2017-03-15T02:10:44.907Z,11.73
2017-03-15T02:11:25.411Z,11.78
2017-03-15T02:12:05.902Z,11.64
2017-03-15T02:12:46.407Z,11.64
2017-03-15T02:13:27.348Z,11.72
2017-03-15T02:14:07.831Z,11.7
2017-03-15T02:14:48.353Z,11.79
2017-03-15T02:15:28.804Z,11.73
2017-03-15T02:16:09.324Z,11.69
2017-03-15T02:16:49.786Z,11.65
2017-03-15T02:17:30.276Z,11.61
2017-03-15T02:18:10.743Z,11.75
2017-03-15T02:18:51.255Z,11.64
2017-03-15T02:19:31.790Z,11.65
2017-03-15T02:20:12.320Z,11.73
2017-03-15T02:20:52.808Z,11.73
2017-03-15T02:21:33.268Z,11.7
2017-03-15T02:22:13.796Z,11.7
2017-03-15T02:22:54.925Z,11.75
2017-03-15T02:23:37.441Z,11.72
2017-03-15T02:24:17.917Z,11.65
2017-03-15T02:24:58.434Z,11.61
2017-03-15T02:25:38.933Z,11.64
2017-03-15T02:26:19.431Z,11.58
2017-03-15T02:26:59.912Z,11.64
2017-03-15T02:27:40.427Z,11.58
2017-03-15T02:28:20.881Z,11.58
2017-03-15T02:29:01.446Z,11.52
2017-03-15T02:29:41.892Z,11.51
2017-03-15T02:30:22.394Z,11.49
2017-03-15T02:31:02.905Z,11.55
2017-03-15T02:31:43.393Z,11.57
2017-03-15T02:32:23.892Z,11.54
2017-03-15T02:33:04.385Z,11.49
2017-03-15T02:33:44.858Z,11.54
2017-03-15T02:34:25.367Z,11.61
2017-03-15T02:35:05.899Z,11.51
2017-03-15T02:35:46.393Z,11.54
2017-03-15T02:36:26.892Z,11.57
2017-03-15T02:37:07.393Z,11.57
2017-03-15T02:37:47.857Z,11.54
2017-03-15T02:38:28.348Z,11.54
2017-03-15T02:39:08.857Z,11.54
2017-03-15T02:39:49.379Z,11.55
2017-03-15T02:40:29.861Z,11.61
2017-03-15T02:41:10.340Z,11.62
2017-03-15T02:41:51.145Z,11.69
2017-03-15T02:42:31.697Z,11.67
2017-03-15T02:43:13.353Z,11.61
2017-03-15T02:43:53.887Z,11.55
2017-03-15T02:44:34.711Z,11.58
2017-03-15T02:45:15.188Z,11.52
2017-03-15T02:45:55.749Z,11.6
2017-03-15T02:46:36.252Z,11.57
2017-03-15T02:47:16.793Z,11.46
2017-03-15T02:47:57.293Z,11.52
2017-03-15T02:48:37.803Z,11.54
2017-03-15T02:49:18.286Z,11.62
2017-03-15T02:49:58.812Z,11.64
2017-03-15T02:50:39.256Z,11.69
2017-03-15T02:51:19.744Z,11.67
2017-03-15T02:52:00.698Z,11.64
2017-03-15T02:52:41.307Z,11.61
2017-03-15T02:53:22.620Z,11.69
2017-03-15T02:54:03.087Z,11.7
2017-03-15T02:54:43.966Z,11.65
2017-03-15T02:55:24.446Z,11.6
2017-03-15T02:56:04.979Z,11.6
2017-03-15T02:56:45.468Z,11.57
2017-03-15T02:57:25.950Z,11.51
2017-03-15T02:58:06.476Z,11.51
2017-03-15T02:58:46.974Z,11.54
2017-03-15T02:59:27.443Z,11.54
2017-03-15T03:00:07.963Z,11.46
2017-03-15T03:00:48.448Z,11.36
2017-03-15T03:01:28.963Z,11.43
2017-03-15T03:02:09.509Z,11.42
2017-03-15T03:02:49.964Z,11.46
2017-03-15T03:03:30.558Z,11.47
2017-03-15T03:04:11.011Z,11.44
2017-03-15T03:04:51.493Z,11.36
2017-03-15T03:05:32.008Z,11.42
2017-03-15T03:06:12.463Z,11.44
2017-03-15T03:06:52.973Z,11.44
2017-03-15T03:07:33.475Z,11.44
2017-03-15T03:08:13.965Z,11.33
2017-03-15T03:08:54.531Z,11.36
2017-03-15T03:09:34.963Z,11.4
2017-03-15T03:10:15.431Z,11.39
2017-03-15T03:10:55.897Z,11.44
2017-03-15T03:11:36.448Z,11.43
2017-03-15T03:12:16.916Z,11.51
2017-03-15T03:12:57.447Z,11.46
2017-03-15T03:13:37.966Z,11.54
2017-03-15T03:14:18.464Z,11.51
2017-03-15T03:14:59.125Z,11.46
2017-03-15T03:15:39.670Z,11.52
2017-03-15T03:16:20.160Z,11.47
2017-03-15T03:17:00.638Z,11.57
2017-03-15T03:17:41.096Z,11.52
2017-03-15T03:18:21.613Z,11.51
2017-03-15T03:19:02.098Z,11.52
2017-03-15T03:19:43.201Z,11.43
2017-03-15T03:20:23.679Z,11.43
2017-03-15T03:21:04.157Z,11.52
2017-03-15T03:21:44.668Z,11.32
2017-03-15T03:22:25.168Z,11.25
2017-03-15T03:23:05.693Z,11.49
2017-03-15T03:23:46.209Z,11.33
2017-03-15T03:24:26.704Z,11.21
2017-03-15T03:25:07.186Z,11.18
2017-03-15T03:25:47.662Z,11.22
2017-03-15T03:26:28.175Z,11.32
2017-03-15T03:27:08.689Z,11.32
2017-03-15T03:27:49.315Z,11.22
2017-03-15T03:28:29.771Z,11.27
2017-03-15T03:29:10.265Z,11.29
2017-03-15T03:29:50.787Z,11.29
2017-03-15T03:30:31.236Z,11.25
2017-03-15T03:31:11.725Z,11.35
2017-03-15T03:31:52.247Z,11.32
2017-03-15T03:32:32.757Z,11.4
2017-03-15T03:33:13.236Z,11.4
2017-03-15T03:33:53.755Z,11.33
2017-03-15T03:34:34.286Z,11.28
2017-03-15T03:35:14.758Z,11.32
2017-03-15T03:35:55.222Z,11.36
2017-03-15T03:36:35.726Z,11.36
2017-03-15T03:37:16.235Z,11.46
2017-03-15T03:37:56.768Z,11.43
2017-03-15T03:38:37.312Z,11.51
2017-03-15T03:39:17.778Z,11.44
2017-03-15T03:39:58.293Z,11.37
2017-03-15T03:40:38.778Z,11.37
2017-03-15T03:41:19.278Z,11.19
2017-03-15T03:41:59.800Z,11.18
2017-03-15T03:42:40.248Z,11.18
2017-03-15T03:43:20.710Z,11.29
2017-03-15T03:44:01.200Z,11.21
2017-03-15T03:44:41.717Z,11.18
2017-03-15T03:45:22.251Z,11.18
2017-03-15T03:46:02.706Z,11.21
2017-03-15T03:46:43.218Z,11.09
2017-03-15T03:47:23.684Z,11.06
2017-03-15T03:48:04.179Z,11.07
2017-03-15T03:48:44.690Z,11.19
2017-03-15T03:49:25.173Z,11.18
2017-03-15T03:50:05.637Z,11.25
2017-03-15T03:50:46.123Z,11.19
2017-03-15T03:51:26.621Z,11.19
2017-03-15T03:52:07.112Z,11.21
2017-03-15T03:52:47.629Z,11.19
2017-03-15T03:53:28.152Z,11.09
2017-03-15T03:54:08.622Z,11.11
2017-03-15T03:54:49.096Z,11.03
2017-03-15T03:55:29.598Z,11.15
2017-03-15T03:56:10.040Z,11.21
2017-03-15T03:56:50.556Z,11.15
2017-03-15T03:57:31.107Z,11.1
2017-03-15T03:58:11.548Z,10.96
2017-03-15T03:58:52.194Z,11
2017-03-15T03:59:32.578Z,11.03
2017-03-15T04:00:13.087Z,10.99
2017-03-15T04:00:53.578Z,11
2017-03-15T04:01:34.124Z,11.06
2017-03-15T04:02:14.601Z,11.04
2017-03-15T04:02:55.031Z,11.07
2017-03-15T04:03:35.509Z,11.09
2017-03-15T04:04:16.000Z,11.02
2017-03-15T04:04:56.503Z,11.17
2017-03-15T04:05:37.019Z,11.18
2017-03-15T04:06:17.525Z,11.17
2017-03-15T04:06:58.024Z,11.15
2017-03-15T04:07:38.542Z,11.22
2017-03-15T04:08:18.984Z,11.27
2017-03-15T04:08:59.457Z,11.24
2017-03-15T04:09:39.969Z,11.19
2017-03-15T04:10:20.455Z,11.19
2017-03-15T04:11:00.944Z,11.15
2017-03-15T04:11:41.422Z,11.22
2017-03-15T04:12:21.940Z,11.22
2017-03-15T04:13:02.466Z,11.22
2017-03-15T04:13:42.968Z,11.32
2017-03-15T04:14:23.489Z,11.25
2017-03-15T04:15:03.948Z,11.25
2017-03-15T04:15:44.450Z,11.21
2017-03-15T04:16:24.905Z,11.19
2017-03-15T04:17:05.387Z,11.18
2017-03-15T04:17:45.906Z,11.25
2017-03-15T04:18:26.399Z,11.19
2017-03-15T04:19:07.063Z,11.29
2017-03-15T04:19:47.587Z,11.22
2017-03-15T04:20:28.074Z,11.24
2017-03-15T04:21:08.721Z,11.25
2017-03-15T04:21:49.184Z,11.24
2017-03-15T04:22:29.692Z,11.18
2017-03-15T04:23:10.162Z,11.21
2017-03-15T04:23:50.717Z,11.27
2017-03-15T04:24:31.229Z,11.24
2017-03-15T04:25:11.743Z,11.22
2017-03-15T04:25:52.209Z,11.28
2017-03-15T04:26:32.703Z,11.32
2017-03-15T04:27:13.157Z,11.27
2017-03-15T04:27:53.705Z,11.21
2017-03-15T04:28:34.196Z,11.18
2017-03-15T04:29:14.703Z,11.18
2017-03-15T04:29:55.188Z,11.11
2017-03-15T04:30:35.660Z,10.97
2017-03-15T04:31:16.195Z,11.11
2017-03-15T04:31:56.647Z,11.06
2017-03-15T04:32:37.135Z,10.91
2017-03-15T04:33:17.657Z,11.02
2017-03-15T04:33:58.103Z,11.11
2017-03-15T04:34:38.627Z,11.04
2017-03-15T04:35:19.128Z,11.07
2017-03-15T04:35:59.626Z,10.96
2017-03-15T04:36:40.070Z,10.91
2017-03-15T04:37:20.586Z,10.97
2017-03-15T04:38:01.102Z,11.11
2017-03-15T04:38:41.588Z,11.14
2017-03-15T04:39:22.079Z,11.04
2017-03-15T04:40:02.593Z,11.1
2017-03-15T04:40:43.089Z,11.15
2017-03-15T04:41:23.594Z,11.15
2017-03-15T04:42:04.114Z,11.14
2017-03-15T04:42:44.784Z,11.06
2017-03-15T04:43:25.250Z,11.03
2017-03-15T04:44:05.774Z,11.06
2017-03-15T04:44:46.253Z,11.09
2017-03-15T04:45:26.770Z,11.1
2017-03-15T04:46:07.237Z,11.15
2017-03-15T04:46:47.775Z,11.17
2017-03-15T04:47:28.298Z,11.18
2017-03-15T04:48:08.795Z,11.06
2017-03-15T04:48:49.263Z,11.22
2017-03-15T04:49:29.765Z,11.15
2017-03-15T04:50:10.319Z,11.18
2017-03-15T04:50:50.832Z,11.18
2017-03-15T04:51:31.335Z,11.18
2017-03-15T04:52:11.873Z,11.19
2017-03-15T04:52:52.384Z,11.21
2017-03-15T04:53:32.881Z,11.18
2017-03-15T04:54:13.349Z,11.17
2017-03-15T04:54:53.845Z,11.21
2017-03-15T04:55:34.391Z,11.18
2017-03-15T04:56:14.891Z,11.18
2017-03-15T04:56:55.477Z,11.18
2017-03-15T04:57:35.986Z,11.32
2017-03-15T04:58:16.449Z,11.29
2017-03-15T04:58:56.983Z,11.35
2017-03-15T04:59:37.524Z,11.21
2017-03-15T05:00:17.998Z,11.21
2017-03-15T05:00:58.588Z,11.35
2017-03-15T05:01:39.021Z,11.19
2017-03-15T05:02:19.519Z,11.22
2017-03-15T05:03:00.023Z,11.35
2017-03-15T05:03:40.548Z,11.17
2017-03-15T05:04:21.031Z,11.25
2017-03-15T05:05:01.492Z,11.14
2017-03-15T05:05:42.007Z,11.18
2017-03-15T05:06:22.521Z,11.18
2017-03-15T05:07:02.959Z,11.18
2017-03-15T05:07:43.484Z,11.18
2017-03-15T05:08:24.031Z,11.22
2017-03-15T05:09:04.493Z,11.22
2017-03-15T05:09:45.028Z,11.19
2017-03-15T05:10:25.481Z,11.04
2017-03-15T05:11:06.009Z,11.14
2017-03-15T05:11:47.337Z,11.19
2017-03-15T05:12:27.857Z,11.18
2017-03-15T05:13:08.351Z,11.19
2017-03-15T05:13:48.856Z,11.19
2017-03-15T05:14:29.365Z,11.18
2017-03-15T05:15:09.833Z,11.22
2017-03-15T05:15:50.346Z,11.19
2017-03-15T05:16:30.868Z,11.21
2017-03-15T05:17:11.319Z,11.19
2017-03-15T05:17:51.837Z,11.1
2017-03-15T05:18:32.307Z,11.04
2017-03-15T05:19:12.882Z,11
2017-03-15T05:19:53.285Z,10.92
2017-03-15T05:20:33.828Z,11
2017-03-15T05:21:14.327Z,11.11
2017-03-15T05:21:54.817Z,11.06
2017-03-15T05:22:35.340Z,11.1
2017-03-15T05:23:15.847Z,11.06
2017-03-15T05:23:56.370Z,11.09
2017-03-15T05:24:36.790Z,11.07
2017-03-15T05:25:17.274Z,11.06
2017-03-15T05:25:57.790Z,11.04
2017-03-15T05:26:38.262Z,11.03
2017-03-15T05:27:18.940Z,11.1
2017-03-15T05:27:59.441Z,11.04
2017-03-15T05:28:39.935Z,11.09
2017-03-15T05:29:20.607Z,11.09
2017-03-15T05:30:01.124Z,11.11
2017-03-15T05:30:41.615Z,11.1
2017-03-15T05:31:22.118Z,11.09
2017-03-15T05:32:02.589Z,11.03
2017-03-15T05:32:43.098Z,11.11
2017-03-15T05:33:23.634Z,11.03
2017-03-15T05:34:04.095Z,10.99
2017-03-15T05:34:44.595Z,11.02
2017-03-15T05:35:25.309Z,11.07
2017-03-15T05:36:06.250Z,11.1
2017-03-15T05:36:47.599Z,11.04
2017-03-15T05:37:28.365Z,11.09
2017-03-15T05:38:08.882Z,11.1
2017-03-15T05:38:49.378Z,11.06
2017-03-15T05:39:29.879Z,11.07
2017-03-15T05:40:10.324Z,11.17
2017-03-15T05:40:50.826Z,11.1
2017-03-15T05:41:31.329Z,11.1
2017-03-15T05:42:11.792Z,11.18
2017-03-15T05:42:52.304Z,11.15
2017-03-15T05:43:32.784Z,11.18
2017-03-15T05:44:13.282Z,11.19
2017-03-15T05:44:53.788Z,11.18
2017-03-15T05:45:34.286Z,11.18
2017-03-15T05:46:14.754Z,11.11
2017-03-15T05:46:55.210Z,11.19
2017-03-15T05:47:35.763Z,11.18
2017-03-15T05:48:16.244Z,11.27
2017-03-15T05:48:56.721Z,11.19
2017-03-15T05:49:37.328Z,11.19
2017-03-15T05:50:17.756Z,11.07
2017-03-15T05:50:58.296Z,11.21
2017-03-15T05:51:38.791Z,11.21
2017-03-15T05:52:19.271Z,11.19
2017-03-15T05:52:59.771Z,11.24
2017-03-15T05:53:40.313Z,11.18
2017-03-15T05:54:20.801Z,11.22
2017-03-15T05:55:01.340Z,11.14
2017-03-15T05:55:41.794Z,11.22
2017-03-15T05:56:22.324Z,11.18
2017-03-15T05:57:02.784Z,11.19
2017-03-15T05:57:43.301Z,11.21
2017-03-15T05:58:23.766Z,11.24
2017-03-15T05:59:04.296Z,11.22
2017-03-15T05:59:45.285Z,11.19
2017-03-15T06:00:25.774Z,11.18
2017-03-15T06:01:06.329Z,11.06
2017-03-15T06:01:46.807Z,11.09
2017-03-15T06:02:28.870Z,11.04
2017-03-15T06:03:08.778Z,11.06
2017-03-15T06:03:49.294Z,11.02
2017-03-15T06:04:29.737Z,11.11
2017-03-15T06:05:10.257Z,11.06
2017-03-15T06:05:50.697Z,11.07
2017-03-15T06:06:31.190Z,11.03
2017-03-15T06:07:11.704Z,10.96
2017-03-15T06:07:52.177Z,11.09
2017-03-15T06:08:32.763Z,11.06
2017-03-15T06:09:14.163Z,11.1
2017-03-15T06:09:54.670Z,11.14
2017-03-15T06:10:35.161Z,11.07
2017-03-15T06:11:15.636Z,11.15
2017-03-15T06:11:56.126Z,11.18
2017-03-15T06:12:36.625Z,11.15
2017-03-15T06:13:17.169Z,11.19
2017-03-15T06:13:57.734Z,11.09
2017-03-15T06:14:38.203Z,11.21
2017-03-15T06:15:18.687Z,11.24
2017-03-15T06:15:59.177Z,11.32
2017-03-15T06:16:39.678Z,11.35
2017-03-15T06:17:20.482Z,11.35
2017-03-15T06:18:01.035Z,11.4
2017-03-15T06:18:42.112Z,11.37
2017-03-15T06:19:22.565Z,11.36
2017-03-15T06:20:03.049Z,11.35
2017-03-15T06:20:46.421Z,11.37
2017-03-15T06:21:27.363Z,11.39
2017-03-15T06:22:07.890Z,11.42
2017-03-15T06:22:48.352Z,11.46
2017-03-15T06:23:29.204Z,11.44
2017-03-15T06:24:12.980Z,11.49
2017-03-15T06:24:54.224Z,11.49
2017-03-15T06:25:41.706Z,11.52
2017-03-15T06:26:25.048Z,11.57
2017-03-15T06:27:02.742Z,11.61
2017-03-15T06:27:43.206Z,11.64
2017-03-15T06:28:23.715Z,11.6
2017-03-15T06:29:04.745Z,11.64
2017-03-15T06:29:45.256Z,11.7
2017-03-15T06:30:25.838Z,11.75
2017-03-15T06:31:06.562Z,11.8
2017-03-15T06:31:46.861Z,11.85
2017-03-15T06:32:27.369Z,11.94
2017-03-15T06:33:07.883Z,11.96
2017-03-15T06:33:48.384Z,11.99
2017-03-15T06:34:28.894Z,12.1
2017-03-15T06:35:09.392Z,12.17
2017-03-15T06:35:49.894Z,12.12
2017-03-15T06:36:30.377Z,12.2
2017-03-15T06:37:10.865Z,12.24
2017-03-15T06:37:51.365Z,12.45
2017-03-15T06:38:31.844Z,12.37
2017-03-15T06:39:12.507Z,12.5
2017-03-15T06:39:53.011Z,12.56
2017-03-15T06:40:34.051Z,12.5
2017-03-15T06:41:14.544Z,12.35
2017-03-15T06:41:55.037Z,12.47
2017-03-15T06:42:35.518Z,12.47
2017-03-15T06:43:16.014Z,12.56
2017-03-15T06:43:56.534Z,12.67
2017-03-15T06:44:37.024Z,12.75
2017-03-15T06:45:17.509Z,12.71
2017-03-15T06:45:58.005Z,12.83
2017-03-15T06:46:38.509Z,12.89
2017-03-15T06:47:24.608Z,12.89
2017-03-15T06:48:58.649Z,12.83
2017-03-15T06:49:39.123Z,12.83
2017-03-15T06:50:19.624Z,12.64
2017-03-15T06:51:00.110Z,12.7
2017-03-15T06:51:40.632Z,12.74
2017-03-15T06:52:21.161Z,12.83
2017-03-15T06:53:01.837Z,12.92
2017-03-15T06:53:42.339Z,12.78
2017-03-15T06:54:22.924Z,12.71
2017-03-15T06:55:04.261Z,12.74
2017-03-15T06:55:46.664Z,12.77
2017-03-15T06:56:32.994Z,12.75
2017-03-15T06:57:13.816Z,12.68
2017-03-15T06:57:54.134Z,12.74
2017-03-15T06:58:36.378Z,12.78
2017-03-15T06:59:22.160Z,12.95
2017-03-15T07:00:02.625Z,13.1
2017-03-15T07:00:44.384Z,13.11
2017-03-15T07:01:27.865Z,13.2
2017-03-15T07:02:08.387Z,13.25
2017-03-15T07:02:51.684Z,13.25
2017-03-15T07:03:32.296Z,13.36
2017-03-15T07:04:12.730Z,13.44
2017-03-15T07:04:58.170Z,13.36
2017-03-15T07:05:39.297Z,13.42
2017-03-15T07:06:22.436Z,13.45
2017-03-15T07:07:04.775Z,13.54
2017-03-15T07:07:46.195Z,13.57
2017-03-15T07:08:26.704Z,13.63
2017-03-15T07:09:07.195Z,13.62
2017-03-15T07:09:48.043Z,13.73
2017-03-15T07:10:28.376Z,13.77
2017-03-15T07:11:08.891Z,13.77
2017-03-15T07:11:49.339Z,13.71
2017-03-15T07:12:29.954Z,13.64
2017-03-15T07:13:12.009Z,13.63
2017-03-15T07:13:54.183Z,13.78
2017-03-15T07:14:36.365Z,13.78
2017-03-15T07:15:20.084Z,13.89
2017-03-15T07:16:00.721Z,13.87
2017-03-15T07:16:41.310Z,13.87
2017-03-15T07:17:21.977Z,13.96
2017-03-15T07:18:02.560Z,14
2017-03-15T07:18:43.092Z,13.95
2017-03-15T07:19:23.595Z,13.89
2017-03-15T07:20:04.083Z,13.96
2017-03-15T07:20:44.591Z,14.06
2017-03-15T07:21:25.104Z,13.97
2017-03-15T07:22:05.682Z,13.97
2017-03-15T07:22:46.199Z,14
2017-03-15T07:23:26.703Z,14
2017-03-15T07:24:07.205Z,14
2017-03-15T07:24:47.735Z,13.99
2017-03-15T07:25:28.280Z,14.17
2017-03-15T07:26:08.850Z,14.18
2017-03-15T07:26:49.335Z,14.2
2017-03-15T07:27:29.803Z,14.17
2017-03-15T07:28:10.330Z,14.25
2017-03-15T07:28:50.820Z,14.36
2017-03-15T07:29:31.320Z,14.39
2017-03-15T07:30:11.850Z,14.37
2017-03-15T07:30:52.370Z,14.47
2017-03-15T07:31:32.869Z,14.55
2017-03-15T07:32:13.415Z,14.58
2017-03-15T07:32:53.946Z,14.62
2017-03-15T07:33:34.469Z,14.58
2017-03-15T07:34:14.986Z,14.62
2017-03-15T07:34:55.532Z,14.69
2017-03-15T07:35:36.029Z,14.7
2017-03-15T07:37:50.922Z,14.81
2017-03-15T07:38:31.408Z,14.96
2017-03-15T07:39:11.958Z,15.09
2017-03-15T07:39:52.429Z,15.13
2017-03-15T07:40:32.910Z,15.21
2017-03-15T07:41:13.429Z,15.28
2017-03-15T07:41:53.927Z,15.36
2017-03-15T07:42:34.457Z,15.16
2017-03-15T07:43:14.989Z,15.2
2017-03-15T07:43:55.582Z,15.02
2017-03-15T07:44:36.017Z,15.09
2017-03-15T07:45:16.573Z,15.13
2017-03-15T07:45:57.088Z,15.06
2017-03-15T07:46:37.693Z,15.06
2017-03-15T07:47:18.083Z,15.01
2017-03-15T07:47:58.618Z,14.83
2017-03-15T07:48:39.087Z,14.88
2017-03-15T07:49:19.826Z,14.91
2017-03-15T07:50:00.479Z,15.03
2017-03-15T07:50:44.020Z,15.13
2017-03-15T07:51:24.581Z,15.25
2017-03-15T07:52:05.040Z,15.31
2017-03-15T07:52:45.522Z,15.36
2017-03-15T07:53:26.040Z,15.38
2017-03-15T07:54:06.559Z,15.53
2017-03-15T07:54:47.061Z,15.57
2017-03-15T07:55:27.600Z,15.62
2017-03-15T07:56:08.106Z,15.53
2017-03-15T07:56:50.473Z,15.71
2017-03-15T07:57:30.968Z,15.56
2017-03-15T07:58:13.152Z,15.57
2017-03-15T07:58:53.585Z,15.5
2017-03-15T07:59:37.586Z,15.57
2017-03-15T08:00:19.788Z,15.69
2017-03-15T08:01:00.313Z,15.71
2017-03-15T08:01:41.850Z,15.65
2017-03-15T08:02:22.407Z,15.56
2017-03-15T08:03:02.885Z,15.67
2017-03-15T08:03:43.353Z,15.76
2017-03-15T08:04:23.874Z,15.69
2017-03-15T08:05:04.359Z,15.67
2017-03-15T08:05:44.852Z,15.64
2017-03-15T08:06:25.368Z,15.62
2017-03-15T08:07:05.869Z,15.57
2017-03-15T08:07:46.413Z,15.62
2017-03-15T08:08:26.874Z,15.64
2017-03-15T08:09:07.357Z,15.59
2017-03-15T08:09:47.895Z,15.68
2017-03-15T08:10:28.398Z,15.71
2017-03-15T08:11:08.895Z,15.76
2017-03-15T08:11:49.398Z,15.71
2017-03-15T08:12:29.911Z,15.76
2017-03-15T08:13:10.447Z,15.76
2017-03-15T08:13:50.931Z,15.9
2017-03-15T08:14:31.425Z,15.96
2017-03-15T08:15:11.960Z,15.89
2017-03-15T08:15:52.436Z,15.94
2017-03-15T08:16:32.937Z,16.02
2017-03-15T08:17:13.456Z,16.09
2017-03-15T08:17:53.943Z,16.05
2017-03-15T08:18:34.445Z,16.09
2017-03-15T08:19:14.965Z,16.23
2017-03-15T08:19:55.484Z,16.05
2017-03-15T08:20:35.991Z,16.12
2017-03-15T08:22:23.992Z,16.15
2017-03-15T08:23:04.493Z,16.11
2017-03-15T08:23:45.003Z,16.15
2017-03-15T08:24:25.506Z,16.14
2017-03-15T08:25:06.021Z,16.17
2017-03-15T08:25:46.538Z,16.24
2017-03-15T08:26:27.044Z,16.23
2017-03-15T08:27:07.567Z,16.17
2017-03-15T08:27:48.072Z,16.25
2017-03-15T08:28:28.575Z,16.14
2017-03-15T08:29:09.084Z,16.15
2017-03-15T08:29:49.596Z,16.17
2017-03-15T08:30:30.153Z,16.27
2017-03-15T08:31:10.687Z,16.23
2017-03-15T08:31:51.176Z,16.14
2017-03-15T08:32:31.705Z,16
2017-03-15T08:33:12.174Z,16.08
2017-03-15T08:33:52.706Z,16.02
2017-03-15T08:34:33.186Z,16.08
2017-03-15T08:35:13.713Z,16.05
2017-03-15T08:35:54.192Z,16.09
2017-03-15T08:36:34.667Z,16.14
2017-03-15T08:37:15.154Z,16.25
2017-03-15T08:37:55.626Z,16.3
2017-03-15T08:38:36.159Z,16.33
2017-03-15T08:39:16.628Z,16.39
2017-03-15T08:39:57.193Z,16.43
2017-03-15T08:40:37.679Z,16.45
2017-03-15T08:41:18.196Z,16.5
2017-03-15T08:41:58.719Z,16.52
2017-03-15T08:42:39.194Z,16.43
2017-03-15T08:43:19.686Z,16.45
2017-03-15T08:44:00.213Z,16.42
2017-03-15T08:44:40.732Z,16.25
2017-03-15T08:45:21.272Z,16.28
2017-03-15T08:46:01.789Z,16.43
2017-03-15T08:46:42.265Z,16.42
2017-03-15T08:47:22.772Z,16.43
2017-03-15T08:48:03.295Z,16.38
2017-03-15T08:48:43.814Z,16.17
2017-03-15T08:49:24.281Z,16.25
2017-03-15T08:50:04.778Z,16.23